sensor_id;sensor_type;location;lat;lon;timestamp;P1;durP1;ratioP1;P2;durP2;ratioP2
29938;SDS011;16799;50.844;5.304;2022-10-16T00:01:19;1.53;;;1.03;;
29938;SDS011;16799;50.844;5.304;2022-10-16T00:03:46;4.70;;;2.13;;
29938;SDS011;16799;50.844;5.304;2022-10-16T00:06:13;1.40;;;1.30;;
29938;SDS011;16799;50.844;5.304;2022-10-16T00:08:40;1.20;;;1.10;;
29938;SDS011;16799;50.844;5.304;2022-10-16T00:11:17;2.53;;;1.10;;
29938;SDS011;16799;50.844;5.304;2022-10-16T00:13:45;1.77;;;1.00;;
29938;SDS011;16799;50.844;5.304;2022-10-16T00:16:12;1.73;;;1.03;;
29938;SDS011;16799;50.844;5.304;2022-10-16T00:18:38;1.73;;;0.97;;
29938;SDS011;16799;50.844;5.304;2022-10-16T00:21:12;1.57;;;0.90;;
29938;SDS011;16799;50.844;5.304;2022-10-16T00:23:42;1.13;;;1.00;;
29938;SDS011;16799;50.844;5.304;2022-10-16T00:26:09;0.97;;;0.87;;
29938;SDS011;16799;50.844;5.304;2022-10-16T00:28:39;2.70;;;1.00;;
29938;SDS011;16799;50.844;5.304;2022-10-16T00:31:06;1.20;;;1.10;;
29938;SDS011;16799;50.844;5.304;2022-10-16T00:33:34;5.77;;;1.97;;
29938;SDS011;16799;50.844;5.304;2022-10-16T00:36:01;0.70;;;0.60;;
29938;SDS011;16799;50.844;5.304;2022-10-16T00:38:29;1.00;;;0.70;;
29938;SDS011;16799;50.844;5.304;2022-10-16T00:40:55;2.00;;;1.33;;
29938;SDS011;16799;50.844;5.304;2022-10-16T00:46:02;1.60;;;0.90;;
29938;SDS011;16799;50.844;5.304;2022-10-16T00:48:30;0.90;;;0.83;;
29938;SDS011;16799;50.844;5.304;2022-10-16T00:50:56;3.80;;;1.07;;
29938;SDS011;16799;50.844;5.304;2022-10-16T00:53:24;2.23;;;1.00;;
29938;SDS011;16799;50.844;5.304;2022-10-16T00:55:50;0.70;;;0.70;;
29938;SDS011;16799;50.844;5.304;2022-10-16T00:58:16;3.77;;;0.83;;
29938;SDS011;16799;50.844;5.304;2022-10-16T01:00:42;1.50;;;0.90;;
29938;SDS011;16799;50.844;5.304;2022-10-16T01:09:20;2.43;;;0.60;;
29938;SDS011;16799;50.844;5.304;2022-10-16T01:11:31;1.33;;;0.90;;
29938;SDS011;16799;50.844;5.304;2022-10-16T01:14:06;1.20;;;1.03;;
29938;SDS011;16799;50.844;5.304;2022-10-16T01:16:52;1.00;;;0.90;;
29938;SDS011;16799;50.844;5.304;2022-10-16T01:19:30;2.87;;;1.20;;
29938;SDS011;16799;50.844;5.304;2022-10-16T01:22:06;1.00;;;0.90;;
29938;SDS011;16799;50.844;5.304;2022-10-16T01:24:40;1.87;;;0.80;;
29938;SDS011;16799;50.844;5.304;2022-10-16T01:27:14;1.10;;;0.80;;
29938;SDS011;16799;50.844;5.304;2022-10-16T01:32:46;5.60;;;0.90;;
29938;SDS011;16799;50.844;5.304;2022-10-16T01:40:27;1.50;;;1.37;;
29938;SDS011;16799;50.844;5.304;2022-10-16T01:42:56;8.53;;;1.43;;
29938;SDS011;16799;50.844;5.304;2022-10-16T01:45:26;3.20;;;1.10;;
29938;SDS011;16799;50.844;5.304;2022-10-16T01:47:55;1.33;;;0.80;;
29938;SDS011;16799;50.844;5.304;2022-10-16T01:50:23;5.77;;;1.00;;
29938;SDS011;16799;50.844;5.304;2022-10-16T01:52:51;1.30;;;1.20;;
29938;SDS011;16799;50.844;5.304;2022-10-16T01:55:22;0.97;;;0.80;;
29938;SDS011;16799;50.844;5.304;2022-10-16T01:57:53;5.03;;;1.23;;
29938;SDS011;16799;50.844;5.304;2022-10-16T02:00:21;2.80;;;1.10;;
29938;SDS011;16799;50.844;5.304;2022-10-16T02:02:49;2.20;;;1.20;;
29938;SDS011;16799;50.844;5.304;2022-10-16T02:05:31;1.63;;;1.10;;
29938;SDS011;16799;50.844;5.304;2022-10-16T02:07:57;0.97;;;0.87;;
29938;SDS011;16799;50.844;5.304;2022-10-16T02:10:24;1.10;;;1.00;;
29938;SDS011;16799;50.844;5.304;2022-10-16T02:12:52;2.20;;;1.10;;
29938;SDS011;16799;50.844;5.304;2022-10-16T02:15:24;8.00;;;1.10;;
29938;SDS011;16799;50.844;5.304;2022-10-16T02:17:49;2.93;;;0.90;;
29938;SDS011;16799;50.844;5.304;2022-10-16T02:20:15;9.13;;;0.87;;
29938;SDS011;16799;50.844;5.304;2022-10-16T02:22:45;0.90;;;0.90;;
29938;SDS011;16799;50.844;5.304;2022-10-16T02:25:22;3.27;;;1.33;;
29938;SDS011;16799;50.844;5.304;2022-10-16T02:28:08;1.20;;;1.07;;
29938;SDS011;16799;50.844;5.304;2022-10-16T02:30:58;4.13;;;1.47;;
29938;SDS011;16799;50.844;5.304;2022-10-16T02:33:26;1.43;;;1.00;;
29938;SDS011;16799;50.844;5.304;2022-10-16T02:35:54;6.20;;;1.00;;
29938;SDS011;16799;50.844;5.304;2022-10-16T02:38:21;4.60;;;1.50;;
29938;SDS011;16799;50.844;5.304;2022-10-16T02:40:47;1.40;;;1.20;;
29938;SDS011;16799;50.844;5.304;2022-10-16T02:43:14;5.50;;;0.90;;
29938;SDS011;16799;50.844;5.304;2022-10-16T02:45:40;7.30;;;1.07;;
29938;SDS011;16799;50.844;5.304;2022-10-16T02:48:05;2.33;;;1.10;;
29938;SDS011;16799;50.844;5.304;2022-10-16T02:50:31;2.40;;;1.20;;
29938;SDS011;16799;50.844;5.304;2022-10-16T02:52:57;3.53;;;0.93;;
29938;SDS011;16799;50.844;5.304;2022-10-16T02:55:23;1.80;;;1.20;;
29938;SDS011;16799;50.844;5.304;2022-10-16T02:57:48;1.50;;;1.10;;
29938;SDS011;16799;50.844;5.304;2022-10-16T03:00:15;1.20;;;1.10;;
29938;SDS011;16799;50.844;5.304;2022-10-16T03:02:41;1.47;;;1.13;;
29938;SDS011;16799;50.844;5.304;2022-10-16T03:05:08;1.43;;;1.03;;
29938;SDS011;16799;50.844;5.304;2022-10-16T03:07:34;3.53;;;1.17;;
29938;SDS011;16799;50.844;5.304;2022-10-16T03:10:00;1.30;;;1.20;;
29938;SDS011;16799;50.844;5.304;2022-10-16T03:12:26;7.70;;;1.30;;
29938;SDS011;16799;50.844;5.304;2022-10-16T03:14:52;2.40;;;1.40;;
29938;SDS011;16799;50.844;5.304;2022-10-16T03:17:18;4.20;;;1.40;;
29938;SDS011;16799;50.844;5.304;2022-10-16T03:19:43;1.10;;;1.00;;
29938;SDS011;16799;50.844;5.304;2022-10-16T03:22:09;1.10;;;1.00;;
29938;SDS011;16799;50.844;5.304;2022-10-16T03:24:35;3.20;;;1.30;;
29938;SDS011;16799;50.844;5.304;2022-10-16T03:27:00;3.13;;;1.20;;
29938;SDS011;16799;50.844;5.304;2022-10-16T03:29:27;1.70;;;1.60;;
29938;SDS011;16799;50.844;5.304;2022-10-16T03:31:54;6.87;;;2.80;;
29938;SDS011;16799;50.844;5.304;2022-10-16T03:34:20;4.73;;;1.10;;
29938;SDS011;16799;50.844;5.304;2022-10-16T03:36:46;3.03;;;0.93;;
29938;SDS011;16799;50.844;5.304;2022-10-16T03:39:12;1.23;;;1.13;;
29938;SDS011;16799;50.844;5.304;2022-10-16T03:41:38;1.60;;;1.50;;
29938;SDS011;16799;50.844;5.304;2022-10-16T03:44:03;1.77;;;1.67;;
29938;SDS011;16799;50.844;5.304;2022-10-16T03:46:29;1.97;;;1.40;;
29938;SDS011;16799;50.844;5.304;2022-10-16T03:48:55;5.27;;;1.77;;
29938;SDS011;16799;50.844;5.304;2022-10-16T03:51:20;5.10;;;1.93;;
29938;SDS011;16799;50.844;5.304;2022-10-16T03:53:46;1.43;;;1.30;;
29938;SDS011;16799;50.844;5.304;2022-10-16T03:56:11;1.53;;;1.40;;
29938;SDS011;16799;50.844;5.304;2022-10-16T03:58:37;2.70;;;2.03;;
29938;SDS011;16799;50.844;5.304;2022-10-16T04:01:03;12.33;;;2.00;;
29938;SDS011;16799;50.844;5.304;2022-10-16T04:03:28;4.40;;;2.60;;
29938;SDS011;16799;50.844;5.304;2022-10-16T04:05:54;1.57;;;1.47;;
29938;SDS011;16799;50.844;5.304;2022-10-16T04:08:20;2.23;;;2.10;;
29938;SDS011;16799;50.844;5.304;2022-10-16T04:10:46;2.30;;;2.03;;
29938;SDS011;16799;50.844;5.304;2022-10-16T04:13:12;3.53;;;2.07;;
29938;SDS011;16799;50.844;5.304;2022-10-16T04:15:38;2.23;;;1.50;;
29938;SDS011;16799;50.844;5.304;2022-10-16T04:18:04;5.83;;;2.07;;
29938;SDS011;16799;50.844;5.304;2022-10-16T04:20:30;2.03;;;1.83;;
29938;SDS011;16799;50.844;5.304;2022-10-16T04:22:56;4.93;;;2.90;;
29938;SDS011;16799;50.844;5.304;2022-10-16T04:25:22;1.77;;;1.37;;
29938;SDS011;16799;50.844;5.304;2022-10-16T04:27:47;3.20;;;3.00;;
29938;SDS011;16799;50.844;5.304;2022-10-16T04:30:13;2.57;;;2.37;;
29938;SDS011;16799;50.844;5.304;2022-10-16T04:32:39;2.40;;;2.20;;
29938;SDS011;16799;50.844;5.304;2022-10-16T04:35:05;2.20;;;2.00;;
29938;SDS011;16799;50.844;5.304;2022-10-16T04:37:32;2.53;;;1.80;;
29938;SDS011;16799;50.844;5.304;2022-10-16T04:39:57;2.23;;;1.93;;
29938;SDS011;16799;50.844;5.304;2022-10-16T04:42:23;2.50;;;2.40;;
29938;SDS011;16799;50.844;5.304;2022-10-16T04:44:49;4.03;;;2.10;;
29938;SDS011;16799;50.844;5.304;2022-10-16T04:47:14;3.83;;;2.30;;
29938;SDS011;16799;50.844;5.304;2022-10-16T04:49:40;8.27;;;4.17;;
29938;SDS011;16799;50.844;5.304;2022-10-16T04:52:06;3.20;;;2.50;;
29938;SDS011;16799;50.844;5.304;2022-10-16T04:54:33;5.97;;;2.93;;
29938;SDS011;16799;50.844;5.304;2022-10-16T04:56:59;8.53;;;3.40;;
29938;SDS011;16799;50.844;5.304;2022-10-16T04:59:25;3.60;;;3.30;;
29938;SDS011;16799;50.844;5.304;2022-10-16T05:01:50;5.30;;;3.20;;
29938;SDS011;16799;50.844;5.304;2022-10-16T05:04:16;2.57;;;2.37;;
29938;SDS011;16799;50.844;5.304;2022-10-16T05:06:42;4.00;;;2.80;;
29938;SDS011;16799;50.844;5.304;2022-10-16T05:09:08;5.80;;;3.07;;
29938;SDS011;16799;50.844;5.304;2022-10-16T05:11:34;5.23;;;2.97;;
29938;SDS011;16799;50.844;5.304;2022-10-16T05:14:00;17.87;;;3.70;;
29938;SDS011;16799;50.844;5.304;2022-10-16T05:16:26;4.13;;;3.73;;
29938;SDS011;16799;50.844;5.304;2022-10-16T05:18:52;5.47;;;2.30;;
29938;SDS011;16799;50.844;5.304;2022-10-16T05:21:18;5.73;;;3.67;;
29938;SDS011;16799;50.844;5.304;2022-10-16T05:23:44;6.20;;;3.67;;
29938;SDS011;16799;50.844;5.304;2022-10-16T05:26:10;4.53;;;3.20;;
29938;SDS011;16799;50.844;5.304;2022-10-16T05:28:35;3.53;;;3.23;;
29938;SDS011;16799;50.844;5.304;2022-10-16T05:31:08;3.67;;;3.47;;
29938;SDS011;16799;50.844;5.304;2022-10-16T05:33:34;3.00;;;2.70;;
29938;SDS011;16799;50.844;5.304;2022-10-16T05:36:04;6.43;;;4.10;;
29938;SDS011;16799;50.844;5.304;2022-10-16T05:38:32;5.73;;;3.60;;
29938;SDS011;16799;50.844;5.304;2022-10-16T05:40:58;10.17;;;3.70;;
29938;SDS011;16799;50.844;5.304;2022-10-16T05:43:24;4.07;;;3.60;;
29938;SDS011;16799;50.844;5.304;2022-10-16T05:46:00;2.97;;;2.77;;
29938;SDS011;16799;50.844;5.304;2022-10-16T05:48:27;5.43;;;3.70;;
29938;SDS011;16799;50.844;5.304;2022-10-16T05:51:04;5.90;;;3.33;;
29938;SDS011;16799;50.844;5.304;2022-10-16T05:53:35;3.27;;;3.07;;
29938;SDS011;16799;50.844;5.304;2022-10-16T05:56:02;3.50;;;2.70;;
29938;SDS011;16799;50.844;5.304;2022-10-16T05:58:30;2.33;;;2.17;;
29938;SDS011;16799;50.844;5.304;2022-10-16T06:01:01;4.03;;;3.30;;
29938;SDS011;16799;50.844;5.304;2022-10-16T06:03:57;3.00;;;2.80;;
29938;SDS011;16799;50.844;5.304;2022-10-16T06:06:23;3.50;;;3.20;;
29938;SDS011;16799;50.844;5.304;2022-10-16T06:08:51;2.50;;;2.20;;
29938;SDS011;16799;50.844;5.304;2022-10-16T06:11:19;2.87;;;2.67;;
29938;SDS011;16799;50.844;5.304;2022-10-16T06:13:55;4.00;;;2.60;;
29938;SDS011;16799;50.844;5.304;2022-10-16T06:16:22;3.23;;;2.93;;
29938;SDS011;16799;50.844;5.304;2022-10-16T06:18:52;3.90;;;2.73;;
29938;SDS011;16799;50.844;5.304;2022-10-16T06:21:21;9.63;;;4.70;;
29938;SDS011;16799;50.844;5.304;2022-10-16T06:23:51;6.83;;;3.20;;
29938;SDS011;16799;50.844;5.304;2022-10-16T06:26:19;3.63;;;2.47;;
29938;SDS011;16799;50.844;5.304;2022-10-16T06:28:46;3.50;;;3.20;;
29938;SDS011;16799;50.844;5.304;2022-10-16T06:31:13;3.93;;;3.67;;
29938;SDS011;16799;50.844;5.304;2022-10-16T06:33:39;2.60;;;2.50;;
29938;SDS011;16799;50.844;5.304;2022-10-16T06:36:09;6.23;;;2.40;;
29938;SDS011;16799;50.844;5.304;2022-10-16T06:38:39;6.57;;;3.13;;
29938;SDS011;16799;50.844;5.304;2022-10-16T06:41:05;3.87;;;3.57;;
29938;SDS011;16799;50.844;5.304;2022-10-16T06:43:32;5.00;;;2.67;;
29938;SDS011;16799;50.844;5.304;2022-10-16T06:46:00;9.77;;;4.10;;
29938;SDS011;16799;50.844;5.304;2022-10-16T06:48:27;6.03;;;2.63;;
29938;SDS011;16799;50.844;5.304;2022-10-16T06:53:25;5.23;;;3.20;;
29938;SDS011;16799;50.844;5.304;2022-10-16T06:55:52;6.23;;;3.63;;
29938;SDS011;16799;50.844;5.304;2022-10-16T06:58:17;7.00;;;2.70;;
29938;SDS011;16799;50.844;5.304;2022-10-16T07:00:43;8.10;;;2.57;;
29938;SDS011;16799;50.844;5.304;2022-10-16T07:03:09;2.83;;;2.63;;
29938;SDS011;16799;50.844;5.304;2022-10-16T07:05:41;10.63;;;3.87;;
29938;SDS011;16799;50.844;5.304;2022-10-16T07:08:08;11.90;;;2.93;;
29938;SDS011;16799;50.844;5.304;2022-10-16T07:10:34;3.70;;;3.27;;
29938;SDS011;16799;50.844;5.304;2022-10-16T07:13:00;4.60;;;3.17;;
29938;SDS011;16799;50.844;5.304;2022-10-16T07:15:26;3.23;;;3.03;;
29938;SDS011;16799;50.844;5.304;2022-10-16T07:17:52;4.13;;;2.80;;
29938;SDS011;16799;50.844;5.304;2022-10-16T07:20:19;3.37;;;3.17;;
29938;SDS011;16799;50.844;5.304;2022-10-16T07:22:44;5.40;;;3.20;;
29938;SDS011;16799;50.844;5.304;2022-10-16T07:25:10;3.07;;;2.87;;
29938;SDS011;16799;50.844;5.304;2022-10-16T07:27:36;2.57;;;2.47;;
29938;SDS011;16799;50.844;5.304;2022-10-16T07:30:02;9.20;;;3.20;;
29938;SDS011;16799;50.844;5.304;2022-10-16T07:32:29;3.43;;;2.67;;
29938;SDS011;16799;50.844;5.304;2022-10-16T07:34:55;4.47;;;2.47;;
29938;SDS011;16799;50.844;5.304;2022-10-16T07:37:21;2.73;;;2.40;;
29938;SDS011;16799;50.844;5.304;2022-10-16T07:39:47;2.80;;;2.60;;
29938;SDS011;16799;50.844;5.304;2022-10-16T07:42:12;2.83;;;2.63;;
29938;SDS011;16799;50.844;5.304;2022-10-16T07:44:38;2.47;;;1.40;;
29938;SDS011;16799;50.844;5.304;2022-10-16T07:47:04;10.93;;;2.50;;
29938;SDS011;16799;50.844;5.304;2022-10-16T07:49:30;2.53;;;2.20;;
29938;SDS011;16799;50.844;5.304;2022-10-16T07:51:56;3.00;;;2.50;;
29938;SDS011;16799;50.844;5.304;2022-10-16T07:54:22;2.67;;;1.90;;
29938;SDS011;16799;50.844;5.304;2022-10-16T07:56:47;8.63;;;1.93;;
29938;SDS011;16799;50.844;5.304;2022-10-16T07:59:13;3.30;;;1.33;;
29938;SDS011;16799;50.844;5.304;2022-10-16T08:01:39;3.73;;;1.80;;
29938;SDS011;16799;50.844;5.304;2022-10-16T08:04:05;1.63;;;1.30;;
29938;SDS011;16799;50.844;5.304;2022-10-16T08:06:34;4.20;;;2.03;;
29938;SDS011;16799;50.844;5.304;2022-10-16T08:09:02;2.50;;;1.87;;
29938;SDS011;16799;50.844;5.304;2022-10-16T08:11:28;2.60;;;2.00;;
29938;SDS011;16799;50.844;5.304;2022-10-16T08:13:54;2.80;;;1.60;;
29938;SDS011;16799;50.844;5.304;2022-10-16T08:16:20;4.20;;;1.47;;
29938;SDS011;16799;50.844;5.304;2022-10-16T08:18:46;12.63;;;1.13;;
29938;SDS011;16799;50.844;5.304;2022-10-16T08:21:12;6.33;;;1.40;;
29938;SDS011;16799;50.844;5.304;2022-10-16T08:23:40;1.93;;;1.67;;
29938;SDS011;16799;50.844;5.304;2022-10-16T08:26:06;5.20;;;1.40;;
29938;SDS011;16799;50.844;5.304;2022-10-16T08:28:33;1.67;;;1.10;;
29938;SDS011;16799;50.844;5.304;2022-10-16T08:31:09;2.83;;;1.00;;
29938;SDS011;16799;50.844;5.304;2022-10-16T08:33:40;6.63;;;1.63;;
29938;SDS011;16799;50.844;5.304;2022-10-16T08:36:07;1.60;;;1.10;;
29938;SDS011;16799;50.844;5.304;2022-10-16T08:38:35;4.43;;;1.30;;
29938;SDS011;16799;50.844;5.304;2022-10-16T08:41:24;2.60;;;1.30;;
29938;SDS011;16799;50.844;5.304;2022-10-16T08:46:49;2.20;;;0.87;;
29938;SDS011;16799;50.844;5.304;2022-10-16T08:49:22;2.00;;;1.40;;
29938;SDS011;16799;50.844;5.304;2022-10-16T08:51:49;8.73;;;1.33;;
29938;SDS011;16799;50.844;5.304;2022-10-16T08:57:19;8.10;;;1.30;;
29938;SDS011;16799;50.844;5.304;2022-10-16T08:59:45;2.77;;;1.10;;
29938;SDS011;16799;50.844;5.304;2022-10-16T09:02:29;2.70;;;1.30;;
29938;SDS011;16799;50.844;5.304;2022-10-16T09:08:00;4.13;;;1.47;;
29938;SDS011;16799;50.844;5.304;2022-10-16T09:11:05;3.40;;;1.53;;
29938;SDS011;16799;50.844;5.304;2022-10-16T09:16:35;3.43;;;1.43;;
29938;SDS011;16799;50.844;5.304;2022-10-16T09:21:56;4.60;;;1.17;;
29938;SDS011;16799;50.844;5.304;2022-10-16T09:24:25;6.77;;;1.43;;
29938;SDS011;16799;50.844;5.304;2022-10-16T09:26:51;2.40;;;1.20;;
29938;SDS011;16799;50.844;5.304;2022-10-16T09:29:17;7.90;;;1.93;;
29938;SDS011;16799;50.844;5.304;2022-10-16T09:31:45;5.00;;;1.27;;
29938;SDS011;16799;50.844;5.304;2022-10-16T09:34:16;4.60;;;1.60;;
29938;SDS011;16799;50.844;5.304;2022-10-16T09:36:44;2.20;;;1.60;;
29938;SDS011;16799;50.844;5.304;2022-10-16T09:39:11;1.93;;;0.80;;
29938;SDS011;16799;50.844;5.304;2022-10-16T09:41:37;1.30;;;1.17;;
29938;SDS011;16799;50.844;5.304;2022-10-16T09:44:15;2.53;;;1.20;;
29938;SDS011;16799;50.844;5.304;2022-10-16T09:46:48;3.27;;;1.10;;
29938;SDS011;16799;50.844;5.304;2022-10-16T09:49:21;2.20;;;1.00;;
29938;SDS011;16799;50.844;5.304;2022-10-16T09:51:49;13.70;;;1.77;;
29938;SDS011;16799;50.844;5.304;2022-10-16T09:54:16;4.83;;;1.87;;
29938;SDS011;16799;50.844;5.304;2022-10-16T09:56:43;3.73;;;1.27;;
29938;SDS011;16799;50.844;5.304;2022-10-16T10:02:00;4.63;;;1.53;;
29938;SDS011;16799;50.844;5.304;2022-10-16T10:04:36;3.00;;;0.90;;
29938;SDS011;16799;50.844;5.304;2022-10-16T10:07:16;2.60;;;1.57;;
29938;SDS011;16799;50.844;5.304;2022-10-16T10:09:44;5.00;;;1.23;;
29938;SDS011;16799;50.844;5.304;2022-10-16T10:12:17;1.33;;;1.00;;
29938;SDS011;16799;50.844;5.304;2022-10-16T10:14:58;2.97;;;1.13;;
29938;SDS011;16799;50.844;5.304;2022-10-16T10:17:48;3.67;;;1.27;;
29938;SDS011;16799;50.844;5.304;2022-10-16T10:22:56;2.10;;;1.23;;
29938;SDS011;16799;50.844;5.304;2022-10-16T10:25:25;3.93;;;1.23;;
29938;SDS011;16799;50.844;5.304;2022-10-16T10:28:28;4.77;;;1.10;;
29938;SDS011;16799;50.844;5.304;2022-10-16T10:31:00;4.00;;;1.10;;
29938;SDS011;16799;50.844;5.304;2022-10-16T10:41:40;2.90;;;1.37;;
29938;SDS011;16799;50.844;5.304;2022-10-16T10:46:57;4.67;;;1.13;;
29938;SDS011;16799;50.844;5.304;2022-10-16T10:49:32;3.40;;;1.43;;
29938;SDS011;16799;50.844;5.304;2022-10-16T10:52:25;4.17;;;0.90;;
29938;SDS011;16799;50.844;5.304;2022-10-16T11:00:30;3.73;;;1.10;;
29938;SDS011;16799;50.844;5.304;2022-10-16T11:06:07;2.80;;;1.00;;
29938;SDS011;16799;50.844;5.304;2022-10-16T11:08:43;2.17;;;1.03;;
29938;SDS011;16799;50.844;5.304;2022-10-16T11:11:20;3.60;;;1.10;;
29938;SDS011;16799;50.844;5.304;2022-10-16T11:14:03;4.20;;;1.17;;
29938;SDS011;16799;50.844;5.304;2022-10-16T11:16:34;1.90;;;0.60;;
29938;SDS011;16799;50.844;5.304;2022-10-16T11:19:14;2.90;;;1.00;;
29938;SDS011;16799;50.844;5.304;2022-10-16T11:22:04;2.30;;;1.43;;
29938;SDS011;16799;50.844;5.304;2022-10-16T11:27:41;4.60;;;1.83;;
29938;SDS011;16799;50.844;5.304;2022-10-16T11:30:13;1.83;;;0.70;;
29938;SDS011;16799;50.844;5.304;2022-10-16T11:35:57;3.43;;;1.23;;
29938;SDS011;16799;50.844;5.304;2022-10-16T11:41:16;2.63;;;1.23;;
29938;SDS011;16799;50.844;5.304;2022-10-16T11:43:49;4.43;;;1.27;;
29938;SDS011;16799;50.844;5.304;2022-10-16T11:46:37;1.23;;;0.80;;
29938;SDS011;16799;50.844;5.304;2022-10-16T11:49:12;3.30;;;1.30;;
29938;SDS011;16799;50.844;5.304;2022-10-16T11:51:52;3.40;;;0.80;;
29938;SDS011;16799;50.844;5.304;2022-10-16T12:00:28;3.00;;;0.80;;
29938;SDS011;16799;50.844;5.304;2022-10-16T12:08:43;10.03;;;1.03;;
29938;SDS011;16799;50.844;5.304;2022-10-16T12:11:20;2.70;;;0.80;;
29938;SDS011;16799;50.844;5.304;2022-10-16T12:16:37;4.10;;;1.57;;
29938;SDS011;16799;50.844;5.304;2022-10-16T12:19:15;3.73;;;0.80;;
29938;SDS011;16799;50.844;5.304;2022-10-16T12:21:42;3.53;;;0.70;;
29938;SDS011;16799;50.844;5.304;2022-10-16T12:30:04;2.00;;;1.23;;
29938;SDS011;16799;50.844;5.304;2022-10-16T12:32:32;4.27;;;1.20;;
29938;SDS011;16799;50.844;5.304;2022-10-16T12:35:00;5.47;;;1.90;;
29938;SDS011;16799;50.844;5.304;2022-10-16T12:37:28;2.23;;;0.90;;
29938;SDS011;16799;50.844;5.304;2022-10-16T12:39:58;1.13;;;0.90;;
29938;SDS011;16799;50.844;5.304;2022-10-16T12:44:54;1.53;;;0.80;;
29938;SDS011;16799;50.844;5.304;2022-10-16T12:47:35;1.17;;;0.70;;
29938;SDS011;16799;50.844;5.304;2022-10-16T12:50:02;2.00;;;0.67;;
29938;SDS011;16799;50.844;5.304;2022-10-16T12:52:47;1.80;;;1.00;;
29938;SDS011;16799;50.844;5.304;2022-10-16T12:55:17;1.47;;;0.77;;
29938;SDS011;16799;50.844;5.304;2022-10-16T13:00:57;2.20;;;0.80;;
29938;SDS011;16799;50.844;5.304;2022-10-16T13:03:52;4.00;;;0.73;;
29938;SDS011;16799;50.844;5.304;2022-10-16T13:11:55;3.03;;;0.67;;
29938;SDS011;16799;50.844;5.304;2022-10-16T13:20:55;4.77;;;0.80;;
29938;SDS011;16799;50.844;5.304;2022-10-16T13:23:48;2.63;;;0.70;;
29938;SDS011;16799;50.844;5.304;2022-10-16T13:26:35;4.77;;;1.00;;
29938;SDS011;16799;50.844;5.304;2022-10-16T13:29:08;9.50;;;0.83;;
29938;SDS011;16799;50.844;5.304;2022-10-16T13:31:36;0.93;;;0.60;;
29938;SDS011;16799;50.844;5.304;2022-10-16T13:34:04;6.90;;;1.07;;
29938;SDS011;16799;50.844;5.304;2022-10-16T13:36:41;3.07;;;0.60;;
29938;SDS011;16799;50.844;5.304;2022-10-16T13:39:13;3.70;;;1.10;;
29938;SDS011;16799;50.844;5.304;2022-10-16T13:41:39;2.30;;;0.50;;
29938;SDS011;16799;50.844;5.304;2022-10-16T13:44:07;1.87;;;0.73;;
29938;SDS011;16799;50.844;5.304;2022-10-16T13:46:44;1.00;;;0.60;;
29938;SDS011;16799;50.844;5.304;2022-10-16T13:49:14;7.30;;;0.67;;
29938;SDS011;16799;50.844;5.304;2022-10-16T13:51:47;3.53;;;0.70;;
29938;SDS011;16799;50.844;5.304;2022-10-16T13:54:23;2.67;;;0.73;;
29938;SDS011;16799;50.844;5.304;2022-10-16T13:56:50;0.87;;;0.60;;
29938;SDS011;16799;50.844;5.304;2022-10-16T13:59:26;0.87;;;0.70;;
29938;SDS011;16799;50.844;5.304;2022-10-16T14:01:57;2.10;;;0.60;;
29938;SDS011;16799;50.844;5.304;2022-10-16T14:04:31;0.80;;;0.50;;
29938;SDS011;16799;50.844;5.304;2022-10-16T14:06:58;1.20;;;0.57;;
29938;SDS011;16799;50.844;5.304;2022-10-16T14:09:24;1.40;;;0.80;;
29938;SDS011;16799;50.844;5.304;2022-10-16T14:11:56;0.97;;;0.60;;
29938;SDS011;16799;50.844;5.304;2022-10-16T14:14:31;2.60;;;0.80;;
29938;SDS011;16799;50.844;5.304;2022-10-16T14:17:04;1.67;;;0.80;;
29938;SDS011;16799;50.844;5.304;2022-10-16T14:19:30;3.10;;;0.70;;
29938;SDS011;16799;50.844;5.304;2022-10-16T14:22:14;2.80;;;1.03;;
29938;SDS011;16799;50.844;5.304;2022-10-16T14:24:45;3.70;;;0.73;;
29938;SDS011;16799;50.844;5.304;2022-10-16T14:30:14;1.60;;;0.63;;
29938;SDS011;16799;50.844;5.304;2022-10-16T14:32:42;4.10;;;0.60;;
29938;SDS011;16799;50.844;5.304;2022-10-16T14:35:37;1.10;;;0.60;;
29938;SDS011;16799;50.844;5.304;2022-10-16T14:38:05;0.70;;;0.50;;
29938;SDS011;16799;50.844;5.304;2022-10-16T14:40:33;0.77;;;0.40;;
29938;SDS011;16799;50.844;5.304;2022-10-16T14:43:01;3.77;;;0.63;;
29938;SDS011;16799;50.844;5.304;2022-10-16T14:45:28;0.70;;;0.57;;
29938;SDS011;16799;50.844;5.304;2022-10-16T14:47:57;0.83;;;0.83;;
29938;SDS011;16799;50.844;5.304;2022-10-16T14:50:29;1.83;;;0.80;;
29938;SDS011;16799;50.844;5.304;2022-10-16T14:52:55;2.77;;;0.97;;
29938;SDS011;16799;50.844;5.304;2022-10-16T14:55:21;1.43;;;0.70;;
29938;SDS011;16799;50.844;5.304;2022-10-16T14:57:46;1.93;;;1.00;;
29938;SDS011;16799;50.844;5.304;2022-10-16T15:02:44;3.20;;;1.20;;
29938;SDS011;16799;50.844;5.304;2022-10-16T15:07:47;4.67;;;0.83;;
29938;SDS011;16799;50.844;5.304;2022-10-16T15:10:14;2.40;;;0.70;;
29938;SDS011;16799;50.844;5.304;2022-10-16T15:12:44;0.73;;;0.60;;
29938;SDS011;16799;50.844;5.304;2022-10-16T15:17:45;0.80;;;0.60;;
29938;SDS011;16799;50.844;5.304;2022-10-16T15:20:10;2.10;;;0.97;;
29938;SDS011;16799;50.844;5.304;2022-10-16T15:22:36;1.93;;;0.80;;
29938;SDS011;16799;50.844;5.304;2022-10-16T15:25:04;1.13;;;0.77;;
29938;SDS011;16799;50.844;5.304;2022-10-16T15:27:53;2.30;;;0.60;;
29938;SDS011;16799;50.844;5.304;2022-10-16T15:30:19;3.30;;;1.93;;
29938;SDS011;16799;50.844;5.304;2022-10-16T15:32:45;4.03;;;0.90;;
29938;SDS011;16799;50.844;5.304;2022-10-16T15:35:10;4.97;;;1.00;;
29938;SDS011;16799;50.844;5.304;2022-10-16T15:37:36;1.53;;;0.87;;
29938;SDS011;16799;50.844;5.304;2022-10-16T15:40:01;3.27;;;1.57;;
29938;SDS011;16799;50.844;5.304;2022-10-16T15:42:27;1.63;;;1.13;;
29938;SDS011;16799;50.844;5.304;2022-10-16T15:44:53;2.30;;;1.50;;
29938;SDS011;16799;50.844;5.304;2022-10-16T15:47:19;2.10;;;1.90;;
29938;SDS011;16799;50.844;5.304;2022-10-16T15:49:44;5.20;;;2.20;;
29938;SDS011;16799;50.844;5.304;2022-10-16T15:52:10;3.67;;;1.70;;
29938;SDS011;16799;50.844;5.304;2022-10-16T15:54:36;1.47;;;1.30;;
29938;SDS011;16799;50.844;5.304;2022-10-16T15:57:02;1.50;;;1.40;;
29938;SDS011;16799;50.844;5.304;2022-10-16T15:59:28;2.40;;;1.40;;
29938;SDS011;16799;50.844;5.304;2022-10-16T16:01:53;5.00;;;1.77;;
29938;SDS011;16799;50.844;5.304;2022-10-16T16:04:19;2.13;;;1.50;;
29938;SDS011;16799;50.844;5.304;2022-10-16T16:06:45;3.03;;;1.47;;
29938;SDS011;16799;50.844;5.304;2022-10-16T16:09:11;1.20;;;1.00;;
29938;SDS011;16799;50.844;5.304;2022-10-16T16:11:37;2.17;;;1.80;;
29938;SDS011;16799;50.844;5.304;2022-10-16T16:14:06;6.73;;;2.00;;
29938;SDS011;16799;50.844;5.304;2022-10-16T16:16:35;2.33;;;1.70;;
29938;SDS011;16799;50.844;5.304;2022-10-16T16:19:03;2.17;;;1.50;;
29938;SDS011;16799;50.844;5.304;2022-10-16T16:21:30;1.33;;;1.07;;
29938;SDS011;16799;50.844;5.304;2022-10-16T16:23:57;1.47;;;1.17;;
29938;SDS011;16799;50.844;5.304;2022-10-16T16:26:23;3.20;;;1.60;;
29938;SDS011;16799;50.844;5.304;2022-10-16T16:28:56;7.43;;;2.77;;
29938;SDS011;16799;50.844;5.304;2022-10-16T16:31:25;1.47;;;1.37;;
29938;SDS011;16799;50.844;5.304;2022-10-16T16:33:52;2.90;;;1.20;;
29938;SDS011;16799;50.844;5.304;2022-10-16T16:36:18;4.20;;;1.37;;
29938;SDS011;16799;50.844;5.304;2022-10-16T16:38:44;2.73;;;1.77;;
29938;SDS011;16799;50.844;5.304;2022-10-16T16:41:14;4.63;;;1.47;;
29938;SDS011;16799;50.844;5.304;2022-10-16T16:43:41;3.33;;;1.20;;
29938;SDS011;16799;50.844;5.304;2022-10-16T16:46:07;2.80;;;1.60;;
29938;SDS011;16799;50.844;5.304;2022-10-16T16:48:33;2.77;;;1.30;;
29938;SDS011;16799;50.844;5.304;2022-10-16T16:51:06;1.50;;;1.40;;
29938;SDS011;16799;50.844;5.304;2022-10-16T16:53:34;3.47;;;1.60;;
29938;SDS011;16799;50.844;5.304;2022-10-16T16:56:04;2.67;;;2.47;;
29938;SDS011;16799;50.844;5.304;2022-10-16T16:58:30;4.23;;;2.07;;